Time;durP1;ratioP1;P1;durP2;ratioP2;P2;SDS_P1;SDS_P2;PMS_P1;PMS_P2;Temp;Humidity;BMP_temperature;BMP_pressure;BME280_temperature;BME280_humidity;BME280_pressure;Samples;Min_cycle;Max_cycle;Signal;HPM_P1;HPM_P2
2022/12/13 00:00:17;;;;;;;72.43;40.42;;;-4.10;94.90;;;;;;5003226;28;20408;-88
2022/12/13 00:02:43;;;;;;;97.32;47.47;;;-4.20;95.00;;;;;;4986292;28;20412;-88
2022/12/13 00:05:09;;;;;;;76.68;41.38;;;-4.20;94.90;;;;;;5004037;28;20417;-87
2022/12/13 00:07:35;;;;;;;78.70;42.92;;;-4.20;95.10;;;;;;5001951;28;20404;-87
2022/12/13 00:10:01;;;;;;;80.00;42.53;;;-4.30;94.90;;;;;;5003506;28;20896;-88
2022/12/13 00:12:26;;;;;;;95.40;49.65;;;-4.20;95.10;;;;;;5018534;28;20432;-89
2022/12/13 00:14:52;;;;;;;78.65;44.15;;;-4.30;94.80;;;;;;5003255;28;20412;-89
2022/12/13 00:17:18;;;;;;;64.90;37.38;;;-4.30;95.20;;;;;;5002941;28;20487;-87
2022/12/13 00:19:45;;;;;;;65.78;37.70;;;-4.30;95.10;;;;;;5019228;28;20413;-87
2022/12/13 00:22:11;;;;;;;70.00;40.25;;;-4.30;94.70;;;;;;5003499;28;20420;-87
2022/12/13 00:24:36;;;;;;;82.95;43.60;;;-4.30;94.60;;;;;;5002153;28;20417;-88
2022/12/13 00:27:02;;;;;;;90.35;47.67;;;-4.30;94.80;;;;;;5004171;28;20775;-88
2022/12/13 00:29:28;;;;;;;57.85;34.70;;;-4.40;94.40;;;;;;5001640;28;20923;-87
2022/12/13 00:31:53;;;;;;;67.93;38.50;;;-4.40;94.70;;;;;;5003649;28;20783;-88
2022/12/13 00:34:20;;;;;;;80.13;45.30;;;-4.50;94.20;;;;;;5002105;28;20420;-88
2022/12/13 00:36:46;;;;;;;74.97;41.08;;;-4.40;94.60;;;;;;5002617;28;20920;-88
2022/12/13 00:39:12;;;;;;;83.25;44.00;;;-4.40;94.80;;;;;;5002132;28;20413;-88
2022/12/13 00:41:39;;;;;;;81.05;44.58;;;-4.40;94.80;;;;;;5002325;28;20504;-89
2022/12/13 00:44:05;;;;;;;67.45;37.88;;;-4.30;95.30;;;;;;5003762;28;20842;-88
2022/12/13 00:46:31;;;;;;;63.60;37.08;;;-4.50;95.30;;;;;;5002078;28;20842;-88
2022/12/13 00:49:00;;;;;;;63.40;36.92;;;-4.50;94.90;;;;;;5003518;28;20436;-88
2022/12/13 00:51:27;;;;;;;71.03;40.03;;;-4.50;94.50;;;;;;5002356;28;20409;-87
2022/12/13 00:53:53;;;;;;;71.25;40.30;;;-4.50;94.50;;;;;;4986895;28;20500;-88
2022/12/13 00:56:22;;;;;;;72.80;42.40;;;-4.20;95.10;;;;;;5002649;28;20937;-88
2022/12/13 00:58:48;;;;;;;74.67;41.10;;;-4.50;95.00;;;;;;5002598;28;20405;-88
2022/12/13 01:01:15;;;;;;;71.47;39.53;;;-4.50;95.20;;;;;;5003289;28;20959;-88
2022/12/13 01:03:41;;;;;;;95.78;49.80;;;-4.60;94.80;;;;;;5001648;28;20416;-88
2022/12/13 01:06:14;;;;;;;64.55;37.40;;;-4.60;94.80;;;;;;5003625;28;20411;-87
2022/12/13 01:08:40;;;;;;;62.08;36.25;;;-4.60;95.10;;;;;;5001636;28;20431;-88
2022/12/13 01:11:06;;;;;;;68.37;39.47;;;-4.60;94.90;;;;;;5003198;28;20412;-88
2022/12/13 01:13:32;;;;;;;72.57;40.53;;;-4.60;94.90;;;;;;5002453;28;20414;-88
2022/12/13 01:16:00;;;;;;;66.25;37.90;;;-4.50;95.20;;;;;;5002301;28;20475;-88
2022/12/13 01:18:25;;;;;;;72.30;40.85;;;-4.60;94.80;;;;;;5002821;28;20405;-88
2022/12/13 01:20:59;;;;;;;92.23;48.20;;;-4.70;94.50;;;;;;5004118;28;20404;-87
2022/12/13 01:23:26;;;;;;;67.03;38.85;;;-4.60;94.90;;;;;;5007062;28;20405;-88
2022/12/13 01:25:51;;;;;;;63.22;36.85;;;-4.60;95.30;;;;;;5005714;28;20432;-88
2022/12/13 01:28:17;;;;;;;62.97;37.45;;;-4.70;95.10;;;;;;5006385;28;20941;-88
2022/12/13 01:30:42;;;;;;;63.00;36.47;;;-4.60;94.90;;;;;;5005793;28;20771;-87
2022/12/13 01:33:08;;;;;;;61.00;37.07;;;-4.70;94.50;;;;;;5006347;28;20967;-89
2022/12/13 01:35:34;;;;;;;71.47;40.87;;;-4.70;94.60;;;;;;5005923;28;20491;-88
2022/12/13 01:38:00;;;;;;;59.00;34.35;;;-4.70;94.90;;;;;;5005347;28;20405;-88
2022/12/13 01:40:26;;;;;;;60.47;35.60;;;-4.70;95.10;;;;;;5023106;28;20540;-88
2022/12/13 01:42:52;;;;;;;61.23;36.33;;;-4.70;94.70;;;;;;5024723;28;20518;-88
2022/12/13 01:45:27;;;;;;;73.23;40.57;;;-4.70;94.70;;;;;;5027007;28;20906;-88
2022/12/13 01:48:00;;;;;;;69.28;38.83;;;-4.70;95.00;;;;;;5041485;28;20924;-89
2022/12/13 01:50:37;;;;;;;68.43;39.47;;;-4.70;94.70;;;;;;5025656;28;20813;-88
2022/12/13 01:53:06;;;;;;;58.10;34.38;;;-4.80;94.50;;;;;;5026040;28;20399;-88
2022/12/13 01:55:34;;;;;;;59.67;35.55;;;-4.70;94.80;;;;;;5024873;28;20399;-88
2022/12/13 01:58:01;;;;;;;59.03;35.85;;;-4.80;94.50;;;;;;5043206;28;20930;-88
2022/12/13 02:00:27;;;;;;;55.65;33.20;;;-4.80;94.50;;;;;;5024641;28;20399;-88
2022/12/13 02:02:56;;;;;;;75.47;41.47;;;-4.80;94.40;;;;;;5026181;28;20407;-87
2022/12/13 02:05:39;;;;;;;60.80;34.78;;;-4.80;94.30;;;;;;5024587;28;20391;-88
2022/12/13 02:08:08;;;;;;;66.80;37.50;;;-4.80;95.00;;;;;;5024887;28;20941;-88
2022/12/13 02:10:34;;;;;;;60.25;37.00;;;-4.80;94.80;;;;;;5025558;28;20407;-87
2022/12/13 02:13:00;;;;;;;79.65;43.90;;;-4.80;94.90;;;;;;5024186;28;20422;-87
2022/12/13 02:15:37;;;;;;;71.95;39.08;;;-4.80;95.30;;;;;;5042496;28;20415;-88
2022/12/13 02:18:18;;;;;;;61.40;37.10;;;-4.80;95.10;;;;;;5040975;28;20407;-88
2022/12/13 02:21:06;;;;;;;58.00;33.72;;;-4.80;94.80;;;;;;5025176;28;20415;-88
2022/12/13 02:23:56;;;;;;;55.30;33.88;;;-4.80;94.70;;;;;;5025740;28;20411;-88
2022/12/13 02:26:50;;;;;;;58.07;36.07;;;-4.80;94.60;;;;;;5023939;28;20522;-87
2022/12/13 02:29:54;;;;;;;60.97;34.78;;;-4.80;94.50;;;;;;5024888;28;20434;-89
2022/12/13 02:32:44;;;;;;;57.95;35.42;;;-4.90;94.90;;;;;;5024970;28;20446;-88
2022/12/13 02:35:40;;;;;;;56.28;33.15;;;-4.80;94.60;;;;;;5023818;28;20980;-88
2022/12/13 02:38:25;;;;;;;54.28;32.88;;;-4.90;94.50;;;;;;5024331;28;20411;-87
2022/12/13 02:41:05;;;;;;;64.57;35.88;;;-4.90;94.30;;;;;;5025260;28;20771;-88
2022/12/13 02:43:41;;;;;;;56.97;34.08;;;-4.90;94.40;;;;;;5023962;28;20504;-87
2022/12/13 02:46:09;;;;;;;56.47;33.47;;;-5.00;94.60;;;;;;5042063;28;20406;-88
2022/12/13 02:48:38;;;;;;;58.35;35.25;;;-4.90;94.80;;;;;;5023724;28;20435;-88
2022/12/13 02:51:06;;;;;;;60.17;34.50;;;-4.90;94.90;;;;;;5024546;28;21023;-88
2022/12/13 02:53:33;;;;;;;61.67;34.90;;;-4.90;94.90;;;;;;5024805;28;20881;-88
2022/12/13 02:55:58;;;;;;;58.40;35.33;;;-4.90;94.70;;;;;;5040315;28;20984;-88
2022/12/13 02:58:31;;;;;;;50.28;30.95;;;-4.90;94.70;;;;;;5025039;28;20511;-88
2022/12/13 03:01:12;;;;;;;53.60;32.08;;;-5.00;94.60;;;;;;5023541;28;20763;-88
2022/12/13 03:03:59;;;;;;;62.35;36.00;;;-5.00;94.10;;;;;;5024122;28;20411;-88
2022/12/13 03:06:39;;;;;;;71.18;40.67;;;-5.00;94.20;;;;;;5024457;28;20407;-87
2022/12/13 03:09:33;;;;;;;53.70;33.75;;;-5.00;94.80;;;;;;5022961;28;20467;-87
2022/12/13 03:15:09;;;;;;;60.65;36.65;;;-5.00;94.90;;;;;;5023683;28;20415;-87
2022/12/13 03:17:42;;;;;;;49.60;31.20;;;-5.00;95.10;;;;;;5023405;28;20521;-87
2022/12/13 03:20:08;;;;;;;54.22;32.80;;;-5.00;94.90;;;;;;5041569;28;20803;-89
2022/12/13 03:22:34;;;;;;;53.25;33.00;;;-5.00;94.60;;;;;;5022511;28;20406;-88
2022/12/13 03:25:00;;;;;;;56.40;34.13;;;-5.00;94.60;;;;;;5024106;28;20411;-88
2022/12/13 03:27:26;;;;;;;64.17;37.33;;;-5.00;94.70;;;;;;5023482;28;20460;-88
2022/12/13 03:29:51;;;;;;;53.70;32.80;;;-5.00;95.00;;;;;;5023744;28;20838;-89
2022/12/13 03:32:17;;;;;;;48.50;30.63;;;-5.00;95.10;;;;;;5023765;28;21002;-88
2022/12/13 03:34:42;;;;;;;54.77;33.57;;;-5.00;94.60;;;;;;5023340;28;20485;-88
2022/12/13 03:37:08;;;;;;;54.47;32.90;;;-5.00;94.50;;;;;;5024136;28;20443;-88
2022/12/13 03:39:34;;;;;;;51.67;31.10;;;-5.00;94.70;;;;;;5022755;28;20495;-87
2022/12/13 03:42:00;;;;;;;50.08;31.83;;;-5.00;94.70;;;;;;5024339;28;20970;-89
2022/12/13 03:44:25;;;;;;;64.18;37.50;;;-5.00;94.90;;;;;;5022642;28;20494;-87
2022/12/13 03:46:51;;;;;;;56.65;34.75;;;-5.00;94.80;;;;;;5023704;28;20915;-88
2022/12/13 03:49:17;;;;;;;55.08;33.15;;;-5.00;95.20;;;;;;5022698;28;20512;-88
2022/12/13 03:51:43;;;;;;;48.95;33.20;;;-5.00;95.00;;;;;;5022836;28;20985;-87
2022/12/13 03:54:08;;;;;;;54.83;33.90;;;-5.00;94.70;;;;;;5023464;28;20408;-88
2022/12/13 03:56:34;;;;;;;53.97;34.45;;;-5.10;94.50;;;;;;5022509;28;20498;-87
2022/12/13 03:59:01;;;;;;;58.30;35.53;;;-5.10;94.40;;;;;;5024127;28;20502;-88
2022/12/13 04:01:27;;;;;;;52.88;33.28;;;-5.10;94.50;;;;;;5022003;28;20407;-90
2022/12/13 04:03:53;;;;;;;51.53;32.15;;;-5.10;94.60;;;;;;5023886;28;20403;-88
2022/12/13 04:06:18;;;;;;;50.72;31.77;;;-5.10;94.70;;;;;;5039328;28;20409;-87
2022/12/13 04:08:44;;;;;;;51.67;32.83;;;-5.10;94.20;;;;;;5039325;28;20992;-88
2022/12/13 04:13:54;;;;;;;57.97;35.70;;;-5.20;94.00;;;;;;5021770;28;20439;-87
2022/12/13 04:16:21;;;;;;;55.83;33.97;;;-5.20;94.30;;;;;;5040432;28;20403;-89
2022/12/13 04:18:46;;;;;;;49.90;31.80;;;-5.30;94.40;;;;;;5038424;28;20402;-87
2022/12/13 04:21:12;;;;;;;54.53;34.37;;;-5.20;94.40;;;;;;5040177;28;20801;-88
2022/12/13 04:23:37;;;;;;;58.17;34.43;;;-5.20;94.30;;;;;;5022482;28;20461;-89
2022/12/13 04:26:03;;;;;;;65.80;38.80;;;-5.20;94.40;;;;;;5023046;28;20450;-88
2022/12/13 04:28:28;;;;;;;48.72;30.88;;;-5.20;94.80;;;;;;5022749;28;20459;-88
2022/12/13 04:30:54;;;;;;;53.10;30.97;;;-5.20;94.70;;;;;;5022608;28;20407;-88
2022/12/13 04:33:23;;;;;;;48.10;30.40;;;-5.30;94.30;;;;;;5039807;28;20457;-88
2022/12/13 04:35:50;;;;;;;55.10;34.00;;;-5.20;94.40;;;;;;5038042;28;20465;-87
2022/12/13 04:38:16;;;;;;;51.60;31.38;;;-5.30;94.50;;;;;;5024141;28;20478;-88
2022/12/13 04:40:41;;;;;;;54.57;34.20;;;-5.30;94.60;;;;;;5021594;28;20415;-88
2022/12/13 04:43:07;;;;;;;51.73;32.80;;;-5.30;94.60;;;;;;5039727;28;20418;-88
2022/12/13 04:45:32;;;;;;;48.67;29.80;;;-5.30;94.80;;;;;;5021826;28;20914;-87
2022/12/13 04:47:58;;;;;;;49.80;30.55;;;-5.30;94.80;;;;;;5022192;28;20396;-88
2022/12/13 04:50:24;;;;;;;52.60;32.67;;;-5.20;94.50;;;;;;5023068;28;20914;-87
2022/12/13 04:52:49;;;;;;;49.03;30.60;;;-5.30;94.60;;;;;;5021432;28;20407;-88
2022/12/13 04:55:15;;;;;;;45.40;28.53;;;-5.30;94.80;;;;;;5043949;28;20410;-87
2022/12/13 04:57:41;;;;;;;50.65;32.08;;;-5.30;94.30;;;;;;5027820;28;20426;-88
2022/12/13 05:00:09;;;;;;;58.45;36.35;;;-5.30;94.20;;;;;;5029617;28;20771;-87
2022/12/13 05:02:35;;;;;;;56.88;35.28;;;-5.30;94.60;;;;;;5028268;28;20986;-86
2022/12/13 05:05:01;;;;;;;60.67;36.75;;;-5.30;94.70;;;;;;5028784;28;20485;-88
2022/12/13 05:07:26;;;;;;;61.90;37.60;;;-5.30;94.60;;;;;;5028571;28;20409;-86
2022/12/13 05:09:52;;;;;;;57.30;34.73;;;-5.30;94.80;;;;;;5028174;28;20442;-89
2022/12/13 05:12:18;;;;;;;48.67;31.30;;;-5.30;95.00;;;;;;5029483;28;20418;-88
2022/12/13 05:14:44;;;;;;;52.03;31.70;;;-5.30;95.00;;;;;;5027832;28;20435;-88
2022/12/13 05:17:09;;;;;;;47.42;30.90;;;-5.30;94.80;;;;;;5030376;28;20890;-88
2022/12/13 05:19:35;;;;;;;48.63;30.33;;;-5.30;94.60;;;;;;5027829;28;20430;-86
2022/12/13 05:22:00;;;;;;;48.20;30.00;;;-5.30;94.50;;;;;;5029012;28;20413;-87
2022/12/13 05:24:26;;;;;;;63.77;38.73;;;-5.30;94.20;;;;;;5044925;28;20418;-88
2022/12/13 05:26:51;;;;;;;49.30;31.20;;;-5.40;94.50;;;;;;5028536;28;20433;-88
2022/12/13 05:29:17;;;;;;;52.93;31.40;;;-5.30;95.10;;;;;;5045359;28;20880;-87
2022/12/13 05:31:43;;;;;;;51.60;32.72;;;-5.30;94.80;;;;;;5027668;28;20414;-88
2022/12/13 05:34:09;;;;;;;59.22;34.90;;;-5.30;94.70;;;;;;5029913;28;20407;-88
2022/12/13 05:36:34;;;;;;;53.38;34.13;;;-5.30;94.90;;;;;;5027494;28;20415;-88
2022/12/13 05:39:00;;;;;;;61.67;37.85;;;-5.40;94.90;;;;;;5029387;28;21035;-88
2022/12/13 05:41:30;;;;;;;58.90;36.47;;;-5.40;94.90;;;;;;5027863;28;20415;-88
2022/12/13 05:43:57;;;;;;;45.55;29.63;;;-5.40;95.20;;;;;;5028142;28;20502;-89
2022/12/13 05:46:23;;;;;;;66.77;39.27;;;-5.40;94.80;;;;;;5028125;28;20553;-87
2022/12/13 05:48:49;;;;;;;51.27;32.53;;;-5.40;94.70;;;;;;5028230;28;20439;-88
2022/12/13 05:51:14;;;;;;;48.83;31.63;;;-5.40;95.10;;;;;;5028999;28;20405;-89
2022/12/13 05:53:41;;;;;;;52.72;33.03;;;-5.40;95.00;;;;;;5027405;28;20407;-88
2022/12/13 05:56:07;;;;;;;39.60;26.47;;;-5.40;94.90;;;;;;5046086;28;20537;-88
2022/12/13 05:58:33;;;;;;;49.20;30.25;;;-5.40;94.60;;;;;;5028092;28;20410;-89
2022/12/13 06:01:11;;;;;;;51.07;32.53;;;-5.40;94.30;;;;;;5028941;28;20677;-87
2022/12/13 06:03:38;;;;;;;48.45;31.20;;;-5.40;94.40;;;;;;5027850;28;20411;-87
2022/12/13 06:06:05;;;;;;;59.13;36.30;;;-5.40;94.30;;;;;;5025937;28;20399;-89
2022/12/13 06:08:30;;;;;;;48.72;31.58;;;-5.40;94.50;;;;;;5042650;28;20443;-88
2022/12/13 06:10:58;;;;;;;45.75;28.63;;;-5.30;94.80;;;;;;5004811;28;20477;-88
2022/12/13 06:13:24;;;;;;;47.95;30.88;;;-5.50;94.50;;;;;;4974081;28;20776;-89
2022/12/13 06:15:50;;;;;;;55.07;34.67;;;-5.50;94.10;;;;;;5031401;28;20397;-87
2022/12/13 06:18:16;;;;;;;56.92;35.45;;;-5.50;94.30;;;;;;4984574;28;21132;-88
2022/12/13 06:20:41;;;;;;;50.85;32.08;;;-5.50;94.40;;;;;;5021427;28;20509;-88
2022/12/13 06:23:07;;;;;;;57.10;36.33;;;-5.50;94.50;;;;;;5022255;28;20413;-88
2022/12/13 06:25:33;;;;;;;48.10;32.57;;;-5.50;94.50;;;;;;5037913;28;20413;-87
2022/12/13 06:27:58;;;;;;;51.87;33.17;;;-5.60;94.40;;;;;;5037492;28;20848;-89
2022/12/13 06:30:24;;;;;;;54.50;35.42;;;-5.60;94.20;;;;;;5039500;28;20467;-88
2022/12/13 06:32:50;;;;;;;63.22;38.15;;;-5.60;94.20;;;;;;5020234;28;20966;-87
2022/12/13 06:35:16;;;;;;;57.95;37.33;;;-5.60;94.50;;;;;;5038268;28;20409;-88
2022/12/13 06:37:41;;;;;;;57.03;35.50;;;-5.60;94.80;;;;;;5037607;28;20471;-88
2022/12/13 06:40:08;;;;;;;61.45;38.78;;;-5.50;94.70;;;;;;5020887;28;20951;-88
2022/12/13 06:42:33;;;;;;;50.33;32.83;;;-5.60;94.90;;;;;;5035535;28;20843;-88
2022/12/13 06:44:59;;;;;;;55.07;34.93;;;-5.60;94.50;;;;;;5004405;28;20475;-88
2022/12/13 06:47:25;;;;;;;47.13;31.90;;;-5.40;94.30;;;;;;5005221;28;20419;-87
2022/12/13 06:49:51;;;;;;;60.83;40.40;;;-5.60;94.40;;;;;;5004072;28;20452;-87
2022/12/13 06:52:17;;;;;;;51.23;33.70;;;-5.60;94.70;;;;;;5005463;28;21022;-88
2022/12/13 06:54:43;;;;;;;59.27;38.27;;;-5.50;95.00;;;;;;5003774;28;20405;-88
2022/12/13 06:57:10;;;;;;;59.22;37.45;;;-5.50;95.00;;;;;;5005108;28;20413;-88
2022/12/13 06:59:35;;;;;;;47.58;30.42;;;-5.40;95.30;;;;;;5004246;28;20419;-88
2022/12/13 07:02:01;;;;;;;46.85;30.15;;;-5.40;95.00;;;;;;5004308;28;20416;-88
2022/12/13 07:04:27;;;;;;;47.10;31.52;;;-5.50;94.30;;;;;;5005013;28;20421;-88
2022/12/13 07:06:52;;;;;;;56.07;35.53;;;-5.50;94.20;;;;;;5003873;28;20393;-88
2022/12/13 07:09:18;;;;;;;54.70;35.37;;;-5.50;94.40;;;;;;5005657;28;20424;-88
2022/12/13 07:11:44;;;;;;;55.67;35.57;;;-5.50;94.60;;;;;;4987480;28;20432;-88
2022/12/13 07:14:09;;;;;;;49.92;32.92;;;-5.50;94.70;;;;;;5004970;28;20912;-89
2022/12/13 07:16:35;;;;;;;60.78;39.10;;;-5.50;94.50;;;;;;5003429;28;20511;-89
2022/12/13 07:19:01;;;;;;;50.55;33.75;;;-5.50;94.80;;;;;;5004203;28;20555;-88
2022/12/13 07:21:28;;;;;;;54.17;34.97;;;-5.40;94.80;;;;;;5003820;28;20446;-89
2022/12/13 07:23:54;;;;;;;61.00;38.00;;;-5.50;94.50;;;;;;5004042;28;20415;-89
2022/12/13 07:26:20;;;;;;;51.30;33.47;;;-5.50;94.50;;;;;;4988507;28;20825;-87
2022/12/13 07:28:46;;;;;;;50.83;32.40;;;-5.50;94.40;;;;;;5003188;28;20439;-89
2022/12/13 07:31:12;;;;;;;57.85;35.45;;;-5.50;94.50;;;;;;5005054;28;20916;-88
2022/12/13 07:33:39;;;;;;;68.82;43.33;;;-5.50;94.40;;;;;;5003437;28;20772;-88
2022/12/13 07:36:08;;;;;;;67.28;40.72;;;-5.50;94.50;;;;;;4987934;28;20416;-88
2022/12/13 07:38:35;;;;;;;55.58;35.28;;;-5.50;95.00;;;;;;5003698;28;20435;-88
2022/12/13 07:41:01;;;;;;;48.63;32.55;;;-5.50;95.00;;;;;;5004156;28;20419;-87
2022/12/13 07:43:28;;;;;;;50.47;33.35;;;-5.40;95.10;;;;;;5005954;28;20459;-88
2022/12/13 07:45:56;;;;;;;50.80;33.42;;;-5.40;94.70;;;;;;5022896;28;20403;-88
2022/12/13 07:48:22;;;;;;;48.08;31.58;;;-5.40;94.50;;;;;;5024613;28;20426;-88
2022/12/13 07:50:48;;;;;;;51.05;33.10;;;-5.40;94.40;;;;;;5022639;28;20768;-87
2022/12/13 07:53:13;;;;;;;65.43;40.95;;;-5.40;94.40;;;;;;5023798;28;20415;-89
2022/12/13 07:55:39;;;;;;;56.25;35.55;;;-5.40;94.70;;;;;;5023149;28;20763;-87
2022/12/13 07:58:06;;;;;;;53.25;35.33;;;-5.40;95.10;;;;;;5022977;28;20426;-88
2022/12/13 08:00:32;;;;;;;48.72;31.88;;;-5.30;94.90;;;;;;5039897;28;20399;-88
2022/12/13 08:02:59;;;;;;;54.42;34.60;;;-5.30;94.70;;;;;;5023019;28;20409;-88
2022/12/13 08:05:25;;;;;;;53.47;34.58;;;-5.30;94.40;;;;;;5024121;28;20411;-88
2022/12/13 08:07:50;;;;;;;54.53;35.03;;;-5.30;94.50;;;;;;5022177;28;20430;-88
2022/12/13 08:10:16;;;;;;;48.27;32.03;;;-5.30;94.50;;;;;;5024282;28;20439;-87
2022/12/13 08:12:42;;;;;;;53.22;34.58;;;-5.20;94.50;;;;;;5022680;28;20403;-88
2022/12/13 08:15:08;;;;;;;49.67;32.03;;;-5.20;94.40;;;;;;5023305;28;20411;-89
2022/12/13 08:17:33;;;;;;;55.05;35.22;;;-5.20;94.60;;;;;;5022538;28;20732;-88
2022/12/13 08:19:59;;;;;;;49.00;32.67;;;-5.10;94.70;;;;;;5022919;28;20403;-89
2022/12/13 08:22:24;;;;;;;52.17;32.77;;;-5.10;94.60;;;;;;5023509;28;20411;-88
2022/12/13 08:24:50;;;;;;;58.30;35.72;;;-5.00;94.50;;;;;;5039299;28;20410;-88
2022/12/13 08:27:16;;;;;;;49.10;33.35;;;-4.90;94.60;;;;;;5024066;28;20418;-87
2022/12/13 08:29:42;;;;;;;75.88;45.67;;;-4.80;94.60;;;;;;5021390;28;20797;-87
2022/12/13 08:32:11;;;;;;;57.17;37.22;;;-4.70;94.80;;;;;;5023405;28;20414;-88
2022/12/13 08:34:37;;;;;;;55.85;36.78;;;-4.60;95.30;;;;;;5022250;28;20477;-89
2022/12/13 08:37:03;;;;;;;60.30;38.47;;;-4.50;94.90;;;;;;5022862;28;20919;-88
2022/12/13 08:39:37;;;;;;;54.78;34.60;;;-4.40;95.20;;;;;;5006792;28;20399;-88
2022/12/13 08:42:04;;;;;;;54.03;34.45;;;-4.30;94.90;;;;;;5022459;28;20451;-89
2022/12/13 08:44:30;;;;;;;53.00;35.10;;;-4.20;94.70;;;;;;5040200;28;20497;-89
2022/12/13 08:46:56;;;;;;;54.37;35.17;;;-4.10;94.60;;;;;;5039140;28;20889;-88
2022/12/13 08:49:21;;;;;;;56.80;35.57;;;-4.00;94.50;;;;;;5023748;28;21008;-88
2022/12/13 08:51:47;;;;;;;57.63;36.83;;;-3.90;94.40;;;;;;5022281;28;20494;-88
2022/12/13 08:54:13;;;;;;;58.33;38.20;;;-3.90;94.40;;;;;;5023393;28;20406;-89
2022/12/13 08:56:38;;;;;;;73.25;46.55;;;-3.80;94.60;;;;;;5022760;28;20943;-89
2022/12/13 08:59:04;;;;;;;62.73;40.60;;;-3.70;94.40;;;;;;5022621;28;20411;-88
2022/12/13 09:01:30;;;;;;;70.13;45.63;;;-3.60;94.50;;;;;;5023456;28;20935;-88
2022/12/13 09:03:55;;;;;;;60.97;41.27;;;-3.40;94.90;;;;;;5021879;28;20434;-89
2022/12/13 09:06:21;;;;;;;63.80;42.17;;;-3.40;94.60;;;;;;5023619;28;20620;-88
2022/12/13 09:08:47;;;;;;;56.95;39.40;;;-3.10;94.60;;;;;;5021730;28;20435;-89
2022/12/13 09:11:12;;;;;;;62.25;42.20;;;-3.00;94.80;;;;;;5022847;28;20407;-88
2022/12/13 09:13:39;;;;;;;55.83;39.15;;;-2.90;94.60;;;;;;5022246;28;20403;-88
2022/12/13 09:16:12;;;;;;;58.10;38.80;;;-2.70;94.70;;;;;;5022363;28;20406;-88
2022/12/13 09:18:37;;;;;;;63.22;40.67;;;-2.60;94.40;;;;;;5039652;28;20422;-89
2022/12/13 09:21:08;;;;;;;53.88;36.78;;;-2.40;94.50;;;;;;5021741;28;20415;-88
2022/12/13 09:23:33;;;;;;;58.20;38.80;;;-2.30;94.20;;;;;;5023348;28;20442;-87
2022/12/13 09:26:00;;;;;;;52.07;36.07;;;-2.20;94.10;;;;;;5021494;28;20921;-88
2022/12/13 09:28:26;;;;;;;51.95;37.30;;;-2.00;93.90;;;;;;5023399;28;20471;-88
2022/12/13 09:30:52;;;;;;;50.10;35.47;;;-1.90;94.10;;;;;;5022255;28;20405;-89
2022/12/13 09:33:18;;;;;;;52.07;36.10;;;-1.80;94.30;;;;;;5022891;28;20482;-88
2022/12/13 09:35:44;;;;;;;47.47;33.93;;;-1.50;93.70;;;;;;5022148;28;20913;-89
2022/12/13 09:38:10;;;;;;;45.10;32.83;;;-1.20;93.40;;;;;;5022000;28;20490;-89
2022/12/13 09:40:37;;;;;;;45.45;32.17;;;-0.70;93.20;;;;;;5023372;28;20506;-89
2022/12/13 09:43:04;;;;;;;41.20;30.98;;;-0.60;92.90;;;;;;5025227;28;20403;-89
2022/12/13 09:45:30;;;;;;;41.78;30.70;;;-0.30;92.50;;;;;;5027115;28;20485;-88
2022/12/13 09:47:58;;;;;;;40.38;30.33;;;-0.20;92.30;;;;;;5025653;28;20468;-88
2022/12/13 09:50:33;;;;;;;38.77;29.77;;;0.00;92.00;;;;;;5026160;28;20999;-89
2022/12/13 09:53:01;;;;;;;38.42;29.88;;;0.20;92.00;;;;;;5025978;28;20766;-88
2022/12/13 09:55:30;;;;;;;42.97;32.22;;;0.30;92.00;;;;;;5025953;28;20408;-89
2022/12/13 09:57:57;;;;;;;41.45;30.90;;;0.30;91.60;;;;;;5026526;28;20466;-88
2022/12/13 10:00:27;;;;;;;42.10;31.75;;;0.30;91.80;;;;;;5024829;28;20414;-88
2022/12/13 10:02:56;;;;;;;44.13;32.03;;;0.40;91.50;;;;;;5026173;28;20443;-88
2022/12/13 10:05:30;;;;;;;41.10;31.52;;;0.30;91.60;;;;;;5024605;28;20472;-90
2022/12/13 10:07:59;;;;;;;40.88;31.95;;;0.40;91.90;;;;;;5025278;28;20553;-88
2022/12/13 10:10:26;;;;;;;41.27;32.47;;;0.40;91.90;;;;;;5025153;28;20836;-87
2022/12/13 10:13:20;;;;;;;44.90;33.58;;;0.40;91.80;;;;;;5024211;28;20403;-89
2022/12/13 10:15:52;;;;;;;41.30;32.38;;;0.40;91.90;;;;;;5025560;28;20411;-88
2022/12/13 10:18:30;;;;;;;41.25;31.67;;;0.40;92.00;;;;;;5024566;28;20410;-88
2022/12/13 10:20:56;;;;;;;41.65;31.75;;;0.50;92.20;;;;;;5037333;28;20449;-87
2022/12/13 10:23:21;;;;;;;42.85;31.73;;;0.50;92.00;;;;;;5005162;28;20435;-88
2022/12/13 10:25:55;;;;;;;44.10;33.42;;;0.50;92.30;;;;;;4988187;28;20899;-89
2022/12/13 10:28:28;;;;;;;44.63;33.83;;;0.50;91.90;;;;;;4989682;28;20449;-88
2022/12/13 10:30:55;;;;;;;46.67;34.22;;;0.40;92.00;;;;;;4987809;28;20453;-89
2022/12/13 10:33:30;;;;;;;42.05;32.20;;;0.50;92.20;;;;;;5005342;28;20412;-89
2022/12/13 10:36:14;;;;;;;42.13;32.00;;;0.50;92.40;;;;;;5004549;28;20412;-88
2022/12/13 10:38:44;;;;;;;45.13;34.10;;;0.60;92.10;;;;;;5004576;28;20467;-88
2022/12/13 10:41:31;;;;;;;44.35;32.90;;;0.60;91.90;;;;;;5006135;28;20432;-88
2022/12/13 10:44:21;;;;;;;40.53;30.15;;;0.80;92.20;;;;;;5004638;28;20405;-89
2022/12/13 10:46:58;;;;;;;40.28;31.15;;;1.00;92.00;;;;;;4989158;28;20432;-89
2022/12/13 10:49:29;;;;;;;36.40;29.08;;;1.20;91.80;;;;;;4988416;28;20454;-88
2022/12/13 10:51:56;;;;;;;35.30;27.85;;;1.50;91.70;;;;;;5004232;28;21035;-88
2022/12/13 10:54:29;;;;;;;37.05;28.70;;;1.80;91.60;;;;;;5005278;28;20405;-89
2022/12/13 10:56:59;;;;;;;34.40;28.27;;;2.00;90.50;;;;;;4987351;28;20429;-89
2022/12/13 10:59:37;;;;;;;34.97;27.65;;;2.30;90.30;;;;;;5003599;28;20421;-88
2022/12/13 11:02:28;;;;;;;36.75;28.77;;;2.40;89.60;;;;;;4985171;28;20850;-88
2022/12/13 11:04:54;;;;;;;35.78;28.48;;;2.20;89.10;;;;;;4984427;28;20977;-88
2022/12/13 11:07:31;;;;;;;35.58;28.55;;;2.10;89.50;;;;;;4968807;28;20486;-89
2022/12/13 11:10:13;;;;;;;34.83;28.20;;;2.10;89.40;;;;;;5000027;28;20841;-88
2022/12/13 11:12:40;;;;;;;39.03;30.30;;;2.20;89.20;;;;;;5001020;28;20418;-89
2022/12/13 11:15:12;;;;;;;36.50;27.73;;;1.90;90.10;;;;;;5000365;28;20792;-88
2022/12/13 11:17:52;;;;;;;37.80;29.63;;;2.00;90.10;;;;;;5013211;28;20429;-88
2022/12/13 11:20:22;;;;;;;38.20;29.30;;;2.10;90.20;;;;;;4996315;28;20911;-88
2022/12/13 11:22:49;;;;;;;38.25;29.33;;;2.10;89.70;;;;;;4980829;28;20405;-89
2022/12/13 11:25:20;;;;;;;37.25;28.65;;;2.10;89.50;;;;;;5037483;28;20413;-88
2022/12/13 11:28:10;;;;;;;40.95;30.60;;;1.90;89.50;;;;;;5036430;28;20765;-88
2022/12/13 11:31:02;;;;;;;40.43;31.77;;;1.70;90.00;;;;;;5036503;28;20416;-86
2022/12/13 11:33:40;;;;;;;37.97;29.83;;;1.60;90.60;;;;;;5037775;28;20416;-88
2022/12/13 11:36:43;;;;;;;44.08;33.60;;;1.50;90.70;;;;;;5035948;28;20784;-89
2022/12/13 11:39:23;;;;;;;44.10;33.53;;;1.50;91.10;;;;;;5003627;28;20420;-88
2022/12/13 11:42:00;;;;;;;37.72;28.48;;;1.80;91.50;;;;;;5037264;28;20420;-87
2022/12/13 11:44:37;;;;;;;36.28;27.77;;;1.80;90.70;;;;;;5035343;28;20425;-87
2022/12/13 11:47:06;;;;;;;31.30;23.58;;;2.00;90.20;;;;;;5020313;28;20405;-89
2022/12/13 11:49:39;;;;;;;30.65;24.27;;;2.20;89.80;;;;;;5036087;28;20433;-88
2022/12/13 11:52:30;;;;;;;26.80;21.73;;;2.40;88.50;;;;;;5036241;28;20444;-87
2022/12/13 11:55:23;;;;;;;30.50;23.92;;;2.40;87.10;;;;;;5036974;28;20494;-87
2022/12/13 11:58:05;;;;;;;31.17;24.20;;;2.50;87.40;;;;;;4990073;28;20957;-86
2022/12/13 12:00:38;;;;;;;26.67;21.90;;;2.80;88.10;;;;;;4992132;28;20940;-89
2022/12/13 12:03:20;;;;;;;29.55;22.33;;;2.90;85.10;;;;;;4993367;28;20419;-88
2022/12/13 12:05:54;;;;;;;28.63;22.73;;;3.20;85.10;;;;;;4991213;28;20452;-87
2022/12/13 12:08:24;;;;;;;28.30;22.17;;;3.30;84.40;;;;;;4977793;28;20410;-86
2022/12/13 12:11:01;;;;;;;24.63;20.95;;;3.40;83.50;;;;;;4987163;28;20420;-87
2022/12/13 12:13:44;;;;;;;27.98;21.98;;;3.80;81.50;;;;;;5000933;28;20488;-87
2022/12/13 12:16:19;;;;;;;25.63;20.33;;;3.90;80.60;;;;;;4983756;28;20494;-88
2022/12/13 12:18:45;;;;;;;28.63;21.98;;;3.90;80.50;;;;;;4982620;28;21008;-88
2022/12/13 12:21:28;;;;;;;26.67;21.90;;;3.80;80.30;;;;;;4984507;28;20501;-86
2022/12/13 12:24:08;;;;;;;30.15;23.75;;;3.50;81.90;;;;;;4996503;28;20455;-87
2022/12/13 12:26:42;;;;;;;29.70;23.97;;;3.30;83.80;;;;;;5022775;28;20419;-87
2022/12/13 12:29:30;;;;;;;31.33;24.70;;;3.00;84.60;;;;;;5023135;28;20431;-88
2022/12/13 12:32:25;;;;;;;29.10;23.20;;;2.80;85.60;;;;;;5021861;28;20418;-87
2022/12/13 12:35:12;;;;;;;27.13;22.00;;;2.60;86.10;;;;;;4988049;28;20921;-87
2022/12/13 12:38:15;;;;;;;28.38;21.65;;;2.40;85.30;;;;;;4983850;28;20445;-87
2022/12/13 12:41:15;;;;;;;31.05;23.38;;;2.20;85.50;;;;;;4982278;28;20411;-87
2022/12/13 12:43:42;;;;;;;31.27;23.40;;;2.00;86.70;;;;;;4983636;28;20459;-87
2022/12/13 12:46:36;;;;;;;28.55;22.05;;;1.90;89.20;;;;;;4982937;28;20932;-87